createdAt,value
2023-07-06T00:02:02.915Z,3.18
2023-07-06T00:04:34.858Z,3.29
2023-07-06T00:07:06.743Z,3.49
2023-07-06T00:09:39.023Z,3.20
2023-07-06T00:12:11.049Z,3.18
2023-07-06T00:14:42.770Z,3.30
2023-07-06T00:17:15.977Z,3.02
2023-07-06T00:19:47.533Z,3.19
2023-07-06T00:22:19.076Z,3.43
2023-07-06T00:24:50.609Z,3.11
2023-07-06T00:27:22.216Z,3.16
2023-07-06T00:29:53.829Z,3.33
2023-07-06T00:32:26.197Z,3.29
2023-07-06T00:34:58.372Z,3.30
2023-07-06T00:37:30.128Z,3.19
2023-07-06T00:40:01.796Z,3.19
2023-07-06T00:42:37.534Z,3.26
2023-07-06T00:45:11.669Z,3.59
2023-07-06T00:47:50.123Z,3.34
2023-07-06T00:50:27.218Z,3.34
2023-07-06T00:53:05.498Z,3.26
2023-07-06T00:55:40.301Z,3.32
2023-07-06T00:58:18.680Z,3.36
2023-07-06T01:00:54.108Z,3.09
2023-07-06T01:03:26.394Z,3.07
2023-07-06T01:06:03.550Z,3.29
2023-07-06T01:08:35.350Z,3.09
2023-07-06T01:11:09.323Z,3.14
2023-07-06T01:13:53.033Z,3.01
2023-07-06T01:16:53.652Z,2.90
2023-07-06T01:19:44.452Z,2.81
2023-07-06T01:22:22.290Z,2.53
2023-07-06T01:25:00.259Z,2.72
2023-07-06T01:28:13.224Z,2.91
2023-07-06T01:31:03.160Z,3.27
2023-07-06T01:33:59.458Z,3.16
2023-07-06T01:37:02.236Z,3.15
2023-07-06T01:39:34.134Z,3.28
2023-07-06T01:42:08.897Z,3.24
2023-07-06T01:44:44.321Z,3.20
2023-07-06T01:47:19.732Z,3.26
2023-07-06T01:49:53.686Z,3.31
2023-07-06T01:52:25.414Z,2.96
2023-07-06T01:55:09.504Z,2.83
2023-07-06T01:58:05.699Z,3.06
2023-07-06T02:00:46.466Z,3.03
2023-07-06T02:03:19.593Z,3.22
2023-07-06T02:05:52.540Z,3.30
2023-07-06T02:08:25.072Z,3.12
2023-07-06T02:10:56.826Z,3.02
2023-07-06T02:13:29.160Z,2.91
2023-07-06T02:16:01.805Z,3.15
2023-07-06T02:18:33.889Z,3.07
2023-07-06T02:21:05.555Z,3.02
2023-07-06T02:23:37.170Z,3.11
2023-07-06T02:26:08.786Z,3.23
2023-07-06T02:28:40.367Z,2.99
2023-07-06T02:31:11.992Z,3.04
2023-07-06T02:33:43.639Z,3.15
2023-07-06T02:36:15.404Z,3.11
2023-07-06T02:38:46.979Z,3.08
2023-07-06T02:41:18.585Z,2.89
2023-07-06T02:43:50.506Z,3.02
2023-07-06T02:46:22.279Z,3.11
2023-07-06T02:48:54.089Z,3.23
2023-07-06T02:51:25.904Z,3.03
2023-07-06T02:53:57.504Z,2.92
2023-07-06T02:56:29.262Z,2.94
2023-07-06T02:59:00.977Z,3.04
2023-07-06T03:01:32.708Z,2.88
2023-07-06T03:04:05.212Z,2.76
2023-07-06T03:06:38.773Z,2.89
2023-07-06T03:09:10.681Z,2.80
2023-07-06T03:11:42.419Z,2.77
2023-07-06T03:14:14.494Z,2.71
2023-07-06T03:16:46.181Z,2.73
2023-07-06T03:19:18.145Z,2.99
2023-07-06T03:21:49.910Z,2.91
2023-07-06T03:24:22.297Z,2.78
2023-07-06T03:26:54.619Z,2.70
2023-07-06T03:29:26.409Z,2.65
2023-07-06T03:31:59.123Z,2.82
2023-07-06T03:34:31.313Z,2.61
2023-07-06T03:37:02.985Z,2.70
2023-07-06T03:39:35.700Z,2.64
2023-07-06T03:42:07.976Z,2.98
2023-07-06T03:44:39.892Z,2.77
2023-07-06T03:47:12.020Z,2.93
2023-07-06T03:49:43.760Z,3.23
2023-07-06T03:52:15.293Z,3.12
2023-07-06T03:54:46.865Z,2.92
2023-07-06T03:57:18.417Z,2.98
2023-07-06T03:59:50.021Z,3.10
2023-07-06T04:02:21.637Z,3.18
2023-07-06T04:04:53.231Z,3.06
2023-07-06T04:07:24.814Z,3.09
2023-07-06T04:09:56.402Z,3.19
2023-07-06T04:12:27.986Z,3.05
2023-07-06T04:14:59.804Z,2.87
2023-07-06T04:17:32.752Z,2.81
2023-07-06T04:20:06.137Z,2.97
2023-07-06T04:22:37.683Z,2.78
2023-07-06T04:25:09.434Z,2.79
2023-07-06T04:27:40.953Z,2.95
2023-07-06T04:30:14.154Z,2.68
2023-07-06T04:32:50.458Z,2.89
2023-07-06T04:35:23.081Z,2.72
2023-07-06T04:37:55.620Z,2.77
2023-07-06T04:40:27.793Z,2.93
2023-07-06T04:42:59.522Z,2.89
2023-07-06T04:45:31.211Z,2.67
2023-07-06T04:48:02.880Z,2.81
2023-07-06T04:50:34.615Z,2.89
2023-07-06T04:53:06.425Z,2.89
2023-07-06T04:55:38.384Z,2.75
2023-07-06T04:58:10.356Z,2.70
2023-07-06T05:00:42.150Z,2.64
2023-07-06T05:03:14.778Z,2.69
2023-07-06T05:05:47.924Z,2.80
2023-07-06T05:08:20.148Z,2.69
2023-07-06T05:10:53.201Z,2.71
2023-07-06T05:13:26.078Z,2.66
2023-07-06T05:15:58.802Z,2.52
2023-07-06T05:18:30.807Z,3.07
2023-07-06T05:21:02.448Z,2.64
2023-07-06T05:23:34.497Z,2.64
2023-07-06T05:26:06.770Z,2.60
2023-07-06T05:28:38.707Z,2.71
2023-07-06T05:31:10.442Z,2.89
2023-07-06T05:33:42.240Z,2.92
2023-07-06T05:36:13.946Z,2.88
2023-07-06T05:38:45.837Z,2.69
2023-07-06T05:41:17.469Z,2.79
2023-07-06T05:43:49.010Z,2.79
2023-07-06T05:46:20.608Z,2.71
2023-07-06T05:48:54.443Z,2.59
2023-07-06T05:51:25.999Z,2.85
2023-07-06T05:53:57.571Z,2.63
2023-07-06T05:56:30.676Z,2.72
2023-07-06T05:59:02.225Z,2.72
2023-07-06T06:01:33.965Z,2.74
2023-07-06T06:04:05.551Z,2.72
2023-07-06T06:06:52.353Z,2.67
2023-07-06T06:09:26.041Z,2.74
2023-07-06T06:12:01.305Z,3.00
2023-07-06T06:14:33.935Z,2.77
2023-07-06T06:17:05.856Z,2.98
2023-07-06T06:19:38.734Z,2.86
2023-07-06T06:22:10.637Z,3.15
2023-07-06T06:24:42.870Z,3.07
2023-07-06T06:27:18.159Z,3.01
2023-07-06T06:29:49.836Z,2.99
2023-07-06T06:32:21.567Z,2.84
2023-07-06T06:34:53.578Z,3.19
2023-07-06T06:37:25.125Z,2.87
2023-07-06T06:39:56.694Z,2.88
2023-07-06T06:42:28.369Z,2.97
2023-07-06T06:45:00.865Z,3.09
2023-07-06T06:47:32.636Z,3.09
2023-07-06T06:50:04.731Z,3.08
2023-07-06T06:52:37.033Z,3.15
2023-07-06T06:55:09.330Z,3.19
2023-07-06T06:57:41.055Z,3.46
2023-07-06T07:00:14.846Z,3.47
2023-07-06T07:02:46.872Z,3.14
2023-07-06T07:05:18.872Z,3.55
2023-07-06T07:07:52.031Z,3.58
2023-07-06T07:10:25.381Z,3.69
2023-07-06T07:13:00.289Z,3.49
2023-07-06T07:15:33.148Z,3.66
2023-07-06T07:18:04.930Z,3.83
2023-07-06T07:20:36.850Z,3.84
2023-07-06T07:23:09.927Z,3.60
2023-07-06T07:25:42.141Z,3.69
2023-07-06T07:28:15.925Z,3.83
2023-07-06T07:30:58.004Z,3.78
2023-07-06T07:33:29.908Z,4.06
2023-07-06T07:36:03.409Z,3.80
2023-07-06T07:38:35.038Z,3.89
2023-07-06T07:41:08.824Z,3.84
2023-07-06T07:43:40.949Z,3.84
2023-07-06T07:46:12.967Z,3.91
2023-07-06T07:48:47.205Z,4.29
2023-07-06T07:51:23.007Z,3.81
2023-07-06T07:53:56.206Z,4.13
2023-07-06T07:56:28.780Z,3.93
2023-07-06T07:59:00.511Z,3.82
2023-07-06T08:01:32.220Z,3.83
2023-07-06T08:04:04.176Z,3.70
2023-07-06T08:06:35.946Z,4.16
2023-07-06T08:09:07.544Z,4.17
2023-07-06T08:11:39.837Z,4.29
2023-07-06T08:14:12.003Z,3.95
2023-07-06T08:16:43.649Z,3.86
2023-07-06T08:19:41.640Z,4.09
2023-07-06T08:22:10.021Z,3.91
2023-07-06T08:24:42.288Z,4.07
2023-07-06T08:27:16.108Z,4.25
2023-07-06T08:29:48.819Z,3.96
2023-07-06T08:32:20.710Z,4.05
2023-07-06T08:34:52.599Z,4.05
2023-07-06T08:37:24.230Z,3.97
2023-07-06T08:39:56.062Z,3.86
2023-07-06T08:42:28.669Z,4.01
2023-07-06T08:45:00.301Z,4.33
2023-07-06T08:47:32.311Z,4.21
2023-07-06T08:50:04.374Z,4.14
2023-07-06T08:52:36.075Z,4.27
2023-07-06T08:55:14.399Z,4.39
2023-07-06T08:57:47.392Z,4.35
2023-07-06T09:00:23.576Z,4.12
2023-07-06T09:03:07.004Z,4.14
2023-07-06T09:05:46.011Z,3.81
2023-07-06T09:08:19.631Z,3.74
2023-07-06T09:10:51.666Z,3.85
2023-07-06T09:13:26.995Z,3.82
2023-07-06T09:16:02.426Z,4.03
2023-07-06T09:18:34.534Z,3.85
2023-07-06T09:21:06.294Z,4.02
2023-07-06T09:23:38.073Z,4.03
2023-07-06T09:26:32.877Z,3.96
2023-07-06T09:29:14.373Z,3.98
2023-07-06T09:31:48.252Z,3.68
2023-07-06T09:34:30.226Z,3.84
2023-07-06T09:37:03.868Z,3.75
2023-07-06T09:39:35.427Z,3.68
2023-07-06T09:42:11.329Z,3.70
2023-07-06T09:44:43.132Z,3.80
2023-07-06T09:47:16.084Z,3.71
2023-07-06T09:49:57.297Z,3.48
2023-07-06T09:52:29.488Z,3.84
2023-07-06T09:55:06.684Z,3.85
2023-07-06T09:57:38.697Z,3.77
2023-07-06T10:00:17.634Z,3.79
2023-07-06T10:02:58.312Z,3.75
2023-07-06T10:05:42.156Z,3.82
2023-07-06T10:08:34.704Z,3.51
2023-07-06T10:11:18.804Z,3.53
2023-07-06T10:14:11.474Z,3.57
2023-07-06T10:17:14.829Z,3.45
2023-07-06T10:20:11.200Z,3.63
2023-07-06T10:23:20.644Z,3.71
2023-07-06T10:26:14.425Z,3.75
2023-07-06T10:29:00.699Z,3.63
2023-07-06T10:31:42.834Z,3.41
2023-07-06T10:34:24.896Z,3.44
2023-07-06T10:36:56.956Z,3.48
2023-07-06T10:39:28.455Z,3.57
2023-07-06T10:42:03.094Z,3.36
2023-07-06T10:44:40.621Z,3.24
2023-07-06T10:47:33.651Z,3.21
2023-07-06T10:50:08.763Z,3.44
2023-07-06T10:52:53.424Z,3.38
2023-07-06T10:55:30.431Z,3.27
2023-07-06T10:58:23.827Z,3.08
2023-07-06T11:01:08.277Z,2.94
2023-07-06T11:03:44.585Z,3.16
2023-07-06T11:06:35.431Z,3.06
2023-07-06T11:09:07.167Z,3.22
2023-07-06T11:12:03.658Z,3.17
2023-07-06T11:14:40.093Z,3.09
2023-07-06T11:17:21.276Z,2.85
2023-07-06T11:20:16.392Z,2.62
2023-07-06T11:22:54.995Z,2.86
2023-07-06T11:25:28.476Z,2.85
2023-07-06T11:28:05.804Z,2.90
2023-07-06T11:30:57.957Z,2.71
2023-07-06T11:33:43.945Z,2.52
2023-07-06T11:36:40.052Z,2.44
2023-07-06T11:39:48.848Z,2.60
2023-07-06T11:42:57.950Z,2.79
2023-07-06T11:45:29.530Z,2.72
2023-07-06T11:48:07.414Z,3.00
2023-07-06T11:50:40.765Z,2.80
2023-07-06T11:53:15.657Z,3.10
2023-07-06T11:55:48.037Z,3.00
2023-07-06T11:58:23.421Z,2.99
2023-07-06T12:00:58.261Z,2.74
2023-07-06T12:03:30.217Z,2.88
2023-07-06T12:06:02.751Z,3.18
2023-07-06T12:08:37.459Z,3.26
2023-07-06T12:11:17.378Z,3.54
2023-07-06T12:13:55.821Z,3.15
2023-07-06T12:16:39.597Z,3.04
2023-07-06T12:19:13.908Z,3.15
2023-07-06T12:21:53.553Z,3.23
2023-07-06T12:24:27.808Z,3.35
2023-07-06T12:27:03.717Z,4.52
2023-07-06T12:29:35.533Z,3.32
2023-07-06T12:32:17.525Z,3.11
2023-07-06T12:34:54.397Z,3.05
2023-07-06T12:37:26.382Z,2.94
2023-07-06T12:39:58.543Z,3.04
2023-07-06T12:42:30.483Z,2.77
2023-07-06T12:45:03.749Z,2.94
2023-07-06T12:47:38.864Z,2.74
2023-07-06T12:50:18.592Z,2.40
2023-07-06T12:52:50.715Z,2.35
2023-07-06T12:55:24.136Z,2.35
2023-07-06T12:57:56.328Z,2.26
2023-07-06T13:00:30.304Z,2.34
2023-07-06T13:03:05.155Z,2.31
2023-07-06T13:05:38.470Z,2.62
2023-07-06T13:08:14.977Z,2.43
2023-07-06T13:10:59.056Z,2.25
2023-07-06T13:13:38.879Z,2.53
2023-07-06T13:16:19.231Z,2.53
2023-07-06T13:18:51.141Z,2.70
2023-07-06T13:21:27.515Z,2.76
2023-07-06T13:23:59.183Z,2.61
2023-07-06T13:26:31.223Z,2.62
2023-07-06T13:29:02.794Z,2.73
2023-07-06T13:31:52.001Z,2.70
2023-07-06T13:34:25.626Z,2.80
2023-07-06T13:36:57.139Z,2.53
2023-07-06T13:39:28.699Z,2.55
2023-07-06T13:42:00.293Z,2.54
2023-07-06T13:44:31.858Z,2.85
2023-07-06T13:47:05.719Z,2.67
2023-07-06T13:49:37.455Z,2.91
2023-07-06T13:52:09.143Z,2.76
2023-07-06T13:54:40.750Z,3.13
2023-07-06T13:57:12.443Z,3.35
2023-07-06T13:59:44.112Z,2.69
2023-07-06T14:02:15.993Z,2.42
2023-07-06T14:04:47.660Z,2.47
2023-07-06T14:07:19.364Z,2.56
2023-07-06T14:09:51.106Z,2.22
2023-07-06T14:12:22.941Z,2.46
2023-07-06T14:14:54.961Z,2.68
2023-07-06T14:17:27.392Z,2.56
2023-07-06T14:20:03.312Z,2.57
2023-07-06T14:22:35.679Z,2.35
2023-07-06T14:25:23.819Z,2.45
2023-07-06T14:27:57.105Z,2.50
2023-07-06T14:30:28.909Z,2.50
2023-07-06T14:33:04.927Z,2.38
2023-07-06T14:35:37.438Z,2.39
2023-07-06T14:38:10.171Z,2.34
2023-07-06T14:40:42.645Z,2.65
2023-07-06T14:43:14.278Z,2.96
2023-07-06T14:45:46.084Z,2.71
2023-07-06T14:48:17.927Z,2.46
2023-07-06T14:50:49.854Z,2.48
2023-07-06T14:53:21.664Z,2.46
2023-07-06T14:55:54.125Z,2.45
2023-07-06T14:58:27.629Z,2.39
2023-07-06T15:00:59.572Z,2.43
2023-07-06T15:03:31.471Z,2.61
2023-07-06T15:06:05.400Z,2.55
2023-07-06T15:08:37.031Z,2.45
2023-07-06T15:11:08.598Z,2.92
2023-07-06T15:13:40.405Z,2.71
2023-07-06T15:16:12.064Z,2.53
2023-07-06T15:18:43.626Z,2.67
2023-07-06T15:21:19.041Z,2.55
2023-07-06T15:23:50.773Z,2.67
2023-07-06T15:26:22.357Z,2.39
2023-07-06T15:28:54.044Z,2.66
2023-07-06T15:31:25.685Z,2.65
2023-07-06T15:33:57.287Z,2.72
2023-07-06T15:36:29.539Z,2.87
2023-07-06T15:39:01.247Z,2.73
2023-07-06T15:41:34.190Z,2.74
2023-07-06T15:44:07.073Z,2.78
2023-07-06T15:46:38.644Z,2.59
2023-07-06T15:49:10.949Z,2.91
2023-07-06T15:51:42.625Z,3.05
2023-07-06T15:54:14.407Z,2.82
2023-07-06T15:56:46.200Z,2.67
2023-07-06T15:59:18.063Z,2.73
2023-07-06T16:01:49.955Z,2.67
2023-07-06T16:04:21.793Z,2.92
2023-07-06T16:06:53.761Z,2.85
2023-07-06T16:09:25.689Z,2.83
2023-07-06T16:11:57.479Z,3.13
2023-07-06T16:14:29.451Z,2.98
2023-07-06T16:17:01.214Z,2.74
2023-07-06T16:19:32.934Z,2.66
2023-07-06T16:22:04.901Z,2.66
2023-07-06T16:24:36.695Z,2.77
2023-07-06T16:27:08.591Z,2.63
2023-07-06T16:29:41.663Z,2.80
2023-07-06T16:32:14.274Z,2.51
2023-07-06T16:34:46.105Z,2.83
2023-07-06T16:37:18.411Z,2.36
2023-07-06T16:39:51.474Z,2.53
2023-07-06T16:42:23.264Z,2.41
2023-07-06T16:44:58.680Z,2.27
2023-07-06T16:47:31.088Z,2.92
2023-07-06T16:50:03.223Z,2.31
2023-07-06T16:52:55.400Z,2.10
2023-07-06T16:55:27.428Z,2.28
2023-07-06T16:58:11.508Z,2.03
2023-07-06T17:00:45.209Z,2.10
2023-07-06T17:03:19.609Z,2.13
2023-07-06T17:05:54.660Z,2.37
2023-07-06T17:08:27.459Z,2.57
2023-07-06T17:11:08.848Z,2.41
2023-07-06T17:13:40.566Z,2.36
2023-07-06T17:16:12.254Z,2.19
2023-07-06T17:18:43.844Z,2.32
2023-07-06T17:21:15.611Z,2.47
2023-07-06T17:23:47.157Z,2.34
2023-07-06T17:26:18.801Z,2.45
2023-07-06T17:28:50.317Z,2.49
2023-07-06T17:31:21.950Z,2.63
2023-07-06T17:33:53.634Z,2.51
2023-07-06T17:36:25.286Z,2.34
2023-07-06T17:38:56.890Z,2.35
2023-07-06T17:41:28.445Z,2.26
2023-07-06T17:44:00.697Z,2.26
2023-07-06T17:46:32.251Z,2.49
2023-07-06T17:49:03.885Z,2.45
2023-07-06T17:51:35.704Z,2.54
2023-07-06T17:54:07.323Z,2.47
2023-07-06T17:56:39.094Z,2.40
2023-07-06T17:59:10.929Z,2.44
2023-07-06T18:01:42.722Z,2.57
2023-07-06T18:04:14.806Z,2.50
2023-07-06T18:06:46.620Z,2.57
2023-07-06T18:09:18.491Z,2.76
2023-07-06T18:11:50.290Z,2.37
2023-07-06T18:14:22.296Z,2.53
2023-07-06T18:16:54.036Z,2.72
2023-07-06T18:19:25.682Z,2.70
2023-07-06T18:21:58.371Z,2.61
2023-07-06T18:24:30.080Z,2.51
2023-07-06T18:27:01.694Z,2.58
2023-07-06T18:29:33.881Z,2.64
2023-07-06T18:32:06.415Z,2.74
2023-07-06T18:34:38.183Z,2.65
2023-07-06T18:37:09.845Z,2.78
2023-07-06T18:39:44.271Z,3.19
2023-07-06T18:42:17.047Z,3.25
2023-07-06T18:45:03.033Z,3.52
2023-07-06T18:47:36.784Z,3.31
2023-07-06T18:50:08.973Z,3.65
2023-07-06T18:52:40.544Z,3.68
2023-07-06T18:55:12.130Z,4.17
2023-07-06T18:57:43.725Z,3.74
2023-07-06T19:00:15.783Z,3.94
2023-07-06T19:02:47.582Z,3.87
2023-07-06T19:05:19.182Z,3.97
2023-07-06T19:08:00.572Z,4.15
2023-07-06T19:10:39.070Z,4.57
2023-07-06T19:13:12.023Z,4.33
2023-07-06T19:15:48.362Z,4.52
2023-07-06T19:18:20.244Z,4.64
2023-07-06T19:20:52.339Z,4.74
2023-07-06T19:23:24.087Z,4.25
2023-07-06T19:25:57.103Z,4.41
2023-07-06T19:28:29.470Z,4.81
2023-07-06T19:31:02.054Z,5.30
2023-07-06T19:33:35.252Z,4.76
2023-07-06T19:36:15.217Z,5.02
2023-07-06T19:38:55.381Z,4.86
2023-07-06T19:41:36.876Z,4.96
2023-07-06T19:44:14.188Z,5.32
2023-07-06T19:46:47.847Z,5.03
2023-07-06T19:49:26.287Z,5.24
2023-07-06T19:51:59.341Z,5.09
2023-07-06T19:54:33.971Z,5.02
2023-07-06T19:57:12.377Z,5.26
2023-07-06T19:59:47.854Z,5.40
2023-07-06T20:02:25.725Z,5.42
2023-07-06T20:05:01.801Z,5.37
2023-07-06T20:07:34.860Z,5.39
2023-07-06T20:10:20.061Z,5.08
2023-07-06T20:13:00.783Z,5.54
2023-07-06T20:15:37.193Z,5.58
2023-07-06T20:18:17.332Z,5.10
2023-07-06T20:20:56.758Z,5.37
2023-07-06T20:23:33.126Z,5.29
2023-07-06T20:26:17.027Z,5.52
2023-07-06T20:28:56.779Z,5.43
2023-07-06T20:31:39.825Z,5.21
2023-07-06T20:34:14.972Z,5.23
2023-07-06T20:36:58.116Z,5.27
2023-07-06T20:39:36.782Z,5.12
2023-07-06T20:42:10.041Z,5.06
2023-07-06T20:44:51.663Z,5.37
2023-07-06T20:47:26.992Z,5.42
2023-07-06T20:50:05.764Z,5.39
2023-07-06T20:52:37.452Z,5.35
2023-07-06T20:55:09.281Z,5.27
2023-07-06T20:57:40.916Z,5.52
2023-07-06T21:00:14.404Z,5.58
2023-07-06T21:02:46.218Z,5.51
2023-07-06T21:05:17.846Z,5.26
2023-07-06T21:07:53.987Z,5.58
2023-07-06T21:10:26.917Z,5.25
2023-07-06T21:12:58.653Z,5.29
2023-07-06T21:15:30.280Z,5.33
2023-07-06T21:18:01.981Z,5.29
2023-07-06T21:20:33.657Z,5.69
2023-07-06T21:23:05.219Z,5.54
2023-07-06T21:25:36.876Z,5.39
2023-07-06T21:28:08.938Z,5.45
2023-07-06T21:30:41.920Z,5.52
2023-07-06T21:33:13.554Z,5.27
2023-07-06T21:35:45.140Z,5.40
2023-07-06T21:38:16.773Z,5.53
2023-07-06T21:40:52.390Z,5.48
2023-07-06T21:43:24.339Z,5.31
2023-07-06T21:45:55.930Z,5.46
2023-07-06T21:48:27.624Z,5.55
2023-07-06T21:50:59.951Z,5.40
2023-07-06T21:53:32.237Z,5.53
2023-07-06T21:56:07.901Z,5.57
2023-07-06T21:58:41.308Z,5.45
2023-07-06T22:01:13.871Z,5.20
2023-07-06T22:03:45.876Z,5.14
2023-07-06T22:06:20.942Z,5.13
2023-07-06T22:08:53.211Z,5.25
2023-07-06T22:11:28.812Z,5.10
2023-07-06T22:14:00.663Z,5.09
2023-07-06T22:16:32.460Z,5.43
2023-07-06T22:19:04.097Z,5.26
2023-07-06T22:21:35.776Z,5.12
2023-07-06T22:24:07.778Z,5.40
2023-07-06T22:26:39.452Z,5.25
2023-07-06T22:29:11.301Z,5.15
2023-07-06T22:31:43.139Z,5.29
2023-07-06T22:34:14.872Z,5.38
2023-07-06T22:36:46.454Z,5.24
2023-07-06T22:39:18.019Z,5.33
2023-07-06T22:41:49.847Z,5.68
2023-07-06T22:44:21.603Z,5.56
2023-07-06T22:46:53.242Z,5.48
2023-07-06T22:49:24.960Z,5.50
2023-07-06T22:51:57.381Z,5.67
2023-07-06T22:54:29.041Z,5.37
2023-07-06T22:57:01.289Z,5.31
2023-07-06T22:59:32.908Z,5.26
2023-07-06T23:02:04.864Z,5.27
2023-07-06T23:04:36.363Z,5.78
2023-07-06T23:07:07.840Z,5.49
2023-07-06T23:09:39.434Z,5.71
2023-07-06T23:12:11.089Z,5.61
2023-07-06T23:14:42.646Z,5.29
2023-07-06T23:17:14.488Z,5.50
2023-07-06T23:19:47.035Z,5.82
2023-07-06T23:22:18.609Z,5.63
2023-07-06T23:24:50.214Z,5.83
2023-07-06T23:27:21.775Z,5.54
2023-07-06T23:29:53.515Z,5.56
2023-07-06T23:32:31.094Z,5.60
2023-07-06T23:35:02.595Z,5.63
2023-07-06T23:37:34.211Z,5.35
2023-07-06T23:40:06.279Z,5.33
2023-07-06T23:42:38.140Z,5.48
2023-07-06T23:45:10.246Z,5.52
2023-07-06T23:47:42.008Z,5.38
2023-07-06T23:50:13.584Z,5.36
2023-07-06T23:52:45.177Z,5.16
2023-07-06T23:55:16.942Z,5.39
2023-07-06T23:57:48.632Z,5.27
